Alford, MA

12:08 PM EDT on October 17, 2019 (GMT -0400)
Alford Near Route 71 | | Change Station
Active Advisory: Wind Advisory

Elev 881 ft 42.23 °N, 73.45 °W | Updated 12 seconds ago

Rain
Rain
45.9 °F
Feels Like 46 °F
N
1
Wind Variable Wind from NE
Gusts 11.0 mph

Today
High -- | Low -- °F
--% Chance of Precip.
Yesterday
High -- | Low -- °F
Precip. -- in
Pressure 29.08 in
Visibility 4.0 miles
Clouds Mostly Cloudy 1400 ft
Mostly Cloudy 1900 ft
Overcast 2800 ft
Windchill 46 °F
Dew Point 46 °F
Humidity 99%
Rainfall 3.18 in
Snow Depth Not available.
7:08 AM 6:08 PM
Waning Gibbous, 87% visible
SPECI KPSF 171605Z AUTO 28021G31KT 4SM -RA BR BKN014 BKN019 OVC028 07/05 A2908 RMK AO2 PK WND 28031/1604 P0002 T00720050
Pressure 29.08 in
Visibility 4.0 miles
Clouds Mostly Cloudy 1400 ft
Mostly Cloudy 1900 ft
Overcast 2800 ft
Windchill 46 °F
Dew Point 46 °F
Humidity 99%
Rainfall 3.18 in
Snow Depth Not available.
7:08 AM 6:08 PM
Waning Gibbous, 87% visible
SPECI KPSF 171605Z AUTO 28021G31KT 4SM -RA BR BKN014 BKN019 OVC028 07/05 A2908 RMK AO2 PK WND 28031/1604 P0002 T00720050

Get Your Daily Forecast Email!

Thanks for signing up!

Be on the lookout for a verification email in your inbox.

You'll start receiving severe weather alerts in your inbox..

×

10-Day Weather Forecast

Almanac

Astronomy

Oct. 17, 2019 Rise Set
Actual Time
Civil Twilight
Nautical Twilight
Astronomical Twilight
Moon
Length of Visible Light
Length of Day
Tomorrow will be .
, % of the Moon is Illuminated

Today's Extremes

State Highs State Lows

Community

WunderPhotos

Category 6

Welcome to Category 6. This is the collective home for Weather Underground's featured writeups by Dr. Jeff Masters (right), Bob Henson (left), Chris Burt, and other regular contributors.

Nearby

Air Quality

  Air Quality AQ Index Pollutant
Not available.

Snow Depth

Station Depth Elevation

Earthquake Activity

City Distance Mag. Time & Date
Minimum magnitude displayed is 2.5.

Coastal Water Temperatures

Place Temperature

Stations

Nearby Weather Stations

Station Location Temp. Windchill Dew Point Humidity Wind Precip. Elev Updated Type
                   

Watches & Warnings

Wind Advisory
Issued: 3:30 AM EDT Oct. 17, 2019 – National Weather Service

... Wind Advisory remains in effect until 8 PM EDT this evening...

* what... northwest winds 20 to 30 mph with gusts of 45 to 55 mph.

* Where... all of eastern New York and western New England.

* When... until 8 PM EDT this evening.

* Impacts... gusty winds could blow around unsecured objects.
Tree limbs could be blown down and a few power outages may
result.

Precautionary/preparedness actions...

Use extra caution when driving, especially if operating a high
profile vehicle. Secure outdoor objects.